Latest Weather Observations for Cobar Airport

IDN60801

Issued at 8:05 am EST Thursday 2 October 2014 (issued every 30 minutes, with the page automatically refreshed every 10 minutes)

About weather observations | Map of weather stations | Latest weather observations for NSW | Other Formats
Station Details ID: 048237 Name: COBAR AIRPORT AWS Lat: -31.54 Lon: 145.80 Height: 218.0 m
Data from the previous 72 hours. | See also: Recent months for locations in New South Wales
Date/Time
EST
Temp
°C
App
Temp
°C
Dew
Point
Rel
Hum
%
Delta-T
°C
Wind Press
QNH
hPa
Press
MSL
hPa
Rain
since 9 am
mm
Dir
 
Spd
km/h
Gust
km/h
Spd
kts
Gust
kts
02/08:00am 13.2 8.4 -0.1 40 5.5 SSE 15 19 8 10 1024.8 1024.2 0.0
02/07:30am 10.8 6.9 -1.6 42 4.9 S 9 13 5 7 1024.9 1024.3 0.0
02/07:00am 8.8 5.2 -2.2 46 4.2 SSE 7 9 4 5 1024.6 1024.0 0.0
02/06:30am 4.7 1.4 -1.5 64 2.3 SE 6 7 3 4 1024.5 1023.9 0.0
02/06:00am 3.8 0.1 -3.0 61 2.4 SSE 7 9 4 5 1024.2 1023.7 0.0
02/05:30am 4.6 1.9 -2.3 61 2.5 SE 2 6 1 3 1024.0 1023.5 0.0
02/05:00am 5.8 1.7 -3.0 53 3.2 SSE 9 11 5 6 1023.7 1023.2 0.0
02/04:30am 5.4 1.3 -2.9 55 3.0 SSE 9 9 5 5 1023.6 1023.1 0.0
02/04:00am 6.0 1.9 -2.8 53 3.2 SE 9 11 5 6 1023.5 1023.0 0.0
02/03:30am 5.4 1.2 -3.6 52 3.2 SE 9 9 5 5 1023.4 1022.9 0.0
02/03:00am 7.1 3.0 -3.1 48 3.7 SE 9 11 5 6 1023.5 1023.0 0.0
02/02:30am 6.6 2.9 -3.3 49 3.6 SE 7 9 4 5 1023.7 1023.2 0.0
02/02:00am 7.9 3.7 -3.6 44 4.2 SSE 9 11 5 6 1023.9 1023.4 0.0
02/01:30am 8.4 3.8 -3.7 42 4.4 SSE 11 13 6 7 1024.1 1023.6 0.0
02/01:00am 8.7 4.2 -3.2 43 4.4 S 11 11 6 6 1024.1 1023.6 0.0
02/12:30am 8.7 4.6 -3.2 43 4.4 S 9 9 5 5 1024.4 1023.8 0.0
02/12:00am 8.9 4.8 -3.3 42 4.5 S 9 11 5 6 1024.5 1023.9 0.0
 
Date/Time
EST
Temp
°C
App
Temp
°C
Dew
Point
Rel
Hum
%
Delta-T
°C
Wind Press
QNH
hPa
Press
MSL
hPa
Rain
since 9 am
mm
Dir
 
Spd
km/h
Gust
km/h
Spd
kts
Gust
kts
01/11:30pm 10.2 6.4 -3.8 37 5.2 S 7 9 4 5 1024.4 1023.8 0.0
01/11:00pm 11.1 6.9 -3.8 35 5.6 S 9 11 5 6 1024.4 1023.8 0.0
01/10:30pm 11.7 7.5 -3.6 34 5.8 S 9 11 5 6 1024.2 1023.7 0.0
01/10:00pm 12.3 7.8 -3.5 33 6.0 S 11 15 6 8 1023.9 1023.4 0.0
01/09:30pm 13.2 9.0 -3.5 31 6.5 S 9 11 5 6 1023.7 1023.2 0.0
01/09:00pm 13.8 8.8 -3.9 29 6.8 S 13 17 7 9 1023.7 1023.2 0.0
01/08:30pm 15.0 9.7 -3.3 28 7.3 S 15 20 8 11 1023.6 1023.1 0.0
01/08:00pm 15.2 10.3 -3.6 27 7.4 S 13 17 7 9 1023.4 1022.9 0.0
01/07:30pm 15.9 10.6 -3.6 26 7.8 S 15 17 8 9 1023.1 1022.6 0.0
01/07:00pm 16.4 11.5 -3.7 25 8.0 S 13 17 7 9 1022.6 1022.1 0.0
01/06:30pm 17.1 11.7 -4.2 23 8.5 S 15 20 8 11 1022.2 1021.7 0.0
01/06:00pm 18.1 11.8 -3.9 22 8.9 S 20 26 11 14 1022.0 1021.5 0.0
01/05:30pm 18.7 12.3 -4.7 20 9.4 S 20 30 11 16 1021.8 1021.3 0.0
01/05:00pm 19.0 12.7 -4.4 20 9.4 S 20 30 11 16 1021.6 1021.0 0.0
01/04:30pm 19.3 13.0 -4.2 20 9.6 S 20 32 11 17 1021.5 1020.9 0.0
01/04:00pm 19.4 13.1 -4.1 20 9.6 S 20 32 11 17 1021.4 1020.8 0.0
01/03:30pm 19.7 12.7 -3.9 20 9.7 S 24 37 13 20 1021.3 1020.7 0.0
01/03:00pm 19.6 13.4 -3.3 21 9.5 SSW 20 32 11 17 1021.4 1020.8 0.0
01/02:30pm 19.2 12.9 -3.6 21 9.4 SSW 20 41 11 22 1021.6 1021.0 0.0
01/02:00pm 18.9 11.9 -3.9 21 9.3 S 24 33 13 18 1022.0 1021.5 0.0
01/01:30pm 19.4 12.3 -4.1 20 9.6 S 24 35 13 19 1022.2 1021.7 0.0
01/01:00pm 18.2 11.1 -4.5 21 9.1 S 24 35 13 19 1022.6 1022.1 0.0
01/12:30pm 18.5 11.5 -3.6 22 9.1 SSW 24 39 13 21 1022.9 1022.4 0.0
01/12:00pm 17.2 9.7 -4.7 22 8.6 S 26 37 14 20 1023.2 1022.7 0.0
01/11:30am 17.2 9.4 -3.5 24 8.4 S 28 39 15 21 1023.4 1022.9 0.0
01/11:00am 16.6 8.8 -4.0 24 8.2 S 28 39 15 21 1023.5 1023.0 0.0
01/10:30am 16.0 9.1 -2.5 28 7.6 SSW 24 33 13 18 1023.7 1023.2 0.0
01/10:00am 15.5 7.7 -1.1 32 6.9 S 30 39 16 21 1023.9 1023.4 0.0
01/09:30am 14.7 7.3 -0.6 35 6.4 S 28 37 15 20 1023.9 1023.7 0.0
01/09:00am 14.5 7.6 0.0 37 6.1 SSW 26 37 14 20 1023.7 1023.5 0.0
01/08:30am 13.5 6.1 -0.9 37 5.9 S 28 41 15 22 1023.5 1023.3 0.0
01/08:00am 13.0 5.6 -0.6 39 5.6 S 28 39 15 21 1023.1 1022.9 0.0
01/07:30am 12.9 5.7 0.6 43 5.2 S 28 37 15 20 1022.9 1022.7 0.0
01/07:00am 12.3 6.3 1.3 47 4.7 SSW 22 28 12 15 1022.6 1022.4 0.0
01/06:30am 11.5 6.6 2.0 52 4.1 S 17 24 9 13 1022.2 1022.0 0.0
01/06:00am 10.2 7.1 1.6 55 3.6 SSW 7 9 4 5 1021.7 1021.4 0.0
01/05:30am 11.4 7.6 1.6 51 4.2 SSW 11 17 6 9 1021.1 1020.8 0.0
01/05:00am 12.3 7.3 1.3 47 4.7 SSW 17 22 9 12 1020.7 1020.4 0.0
01/04:30am 12.9 7.3 1.0 44 5.1 SSW 20 28 11 15 1020.2 1019.9 0.0
01/04:00am 13.4 7.3 0.1 40 5.6 SSW 22 32 12 17 1019.9 1019.6 0.0
01/03:30am 14.1 6.7 1.7 43 5.5 S 30 46 16 25 1019.6 1019.3 0.0
01/03:27am 14.1 7.1 2.0 44 5.4 S 28 46 15 25 1019.6 1019.3 0.0
01/03:00am 14.3 9.4 5.1 54 4.3 SSW 20 28 11 15 1019.3 1019.1 0.0
01/02:30am 15.0 8.2 5.0 51 4.8 SSW 30 43 16 23 1019.1 1018.9 0.0
01/02:06am 15.4 7.5 6.1 54 4.5 SSW 37 56 20 30 1018.9 1018.7 0.0
01/02:00am 15.6 7.3 6.3 54 4.6 SSW 39 56 21 30 1018.9 1018.7 0.0
01/01:50am 16.0 8.2 6.7 54 4.6 SSW 37 57 20 31 1018.7 1018.5 0.0
01/01:30am 17.3 9.8 6.2 48 5.5 SSW 35 50 19 27 1018.2 1018.0 0.0
01/01:19am 17.9 10.2 5.5 44 6.1 SSW 35 54 19 29 1018.0 1017.7 0.0
01/01:00am 19.5 11.9 2.8 33 7.8 SSW 32 46 17 25 1017.5 1017.2 0.0
01/12:30am 21.2 14.3 2.5 29 8.9 SSW 28 41 15 22 1016.8 1016.5 0.0
01/12:00am 21.2 16.3 2.0 28 9.0 SW 17 24 9 13 1016.2 1015.9 0.0
 
Date/Time
EST
Temp
°C
App
Temp
°C
Dew
Point
Rel
Hum
%
Delta-T
°C
Wind Press
QNH
hPa
Press
MSL
hPa
Rain
since 9 am
mm
Dir
 
Spd
km/h
Gust
km/h
Spd
kts
Gust
kts
30/11:45pm 21.2 15.9 3.0 30 8.7 WSW 20 35 11 19 1016.0 1015.7 0.0
30/11:30pm 16.2 13.3 2.6 40 6.2 W 7 11 4 6 1015.6 1015.3 0.0
30/11:00pm 18.6 15.7 2.4 34 7.5 W 7 9 4 5 1015.3 1015.0 0.0
30/10:30pm 17.5 14.9 3.0 38 6.7 WNW 6 9 3 5 1015.2 1014.9 0.0
30/10:00pm 18.2 16.1 3.7 38 6.9 NW 4 7 2 4 1015.0 1014.7 0.0
30/09:30pm 19.4 16.4 1.9 31 8.1 W 7 9 4 5 1015.0 1014.7 0.0
30/09:00pm 18.4 15.5 1.4 32 7.7 NNW 6 7 3 4 1015.0 1014.7 0.0
30/08:30pm 21.0 18.2 2.3 29 8.8 NW 6 7 3 4 1014.8 1014.5 0.0
30/08:00pm 23.5 20.4 1.2 23 10.5 WNW 7 9 4 5 1014.5 1014.3 0.0
30/07:30pm 24.8 20.1 1.0 21 11.3 W 15 19 8 10 1014.2 1013.9 0.0
30/07:00pm 26.9 21.4 0.6 18 12.5 W 19 30 10 16 1013.7 1013.4 0.0
30/06:30pm 27.6 20.7 0.4 17 13.0 W 26 33 14 18 1013.2 1012.9 0.0
30/06:00pm 28.7 22.2 0.4 16 13.6 WNW 24 33 13 18 1013.0 1012.7 0.0
30/05:30pm 29.4 21.7 0.1 15 14.1 WNW 30 41 16 22 1012.7 1012.4 0.0
30/05:00pm 30.4 23.6 0.9 15 14.5 WNW 26 37 14 20 1012.4 1012.1 0.0
30/04:30pm 30.6 23.3 0.1 14 14.8 W 28 39 15 21 1012.4 1012.1 0.0
30/04:00pm 30.9 23.3 0.3 14 14.9 W 30 44 16 24 1012.6 1012.3 0.0
30/03:30pm 31.3 25.4 1.6 15 14.8 W 22 35 12 19 1012.6 1012.3 0.0
30/03:00pm 32.3 26.1 2.4 15 15.3 W 24 37 13 20 1012.7 1012.4 0.0
30/02:35pm 31.3 24.1 0.6 14 15.1 W 28 46 15 25 1013.0 1012.7 0.0
30/02:30pm 32.1 26.1 3.1 16 14.9 W 24 39 13 21 1013.1 1012.8 0.0
30/02:02pm 31.7 24.7 1.9 15 15.0 W 28 54 15 29 1013.3 1013.0 0.0
30/02:00pm 31.6 24.7 2.7 16 14.7 W 28 44 15 24 1013.5 1013.2 0.0
30/01:41pm 31.4 24.4 1.7 15 14.9 W 28 46 15 25 1013.5 1013.2 0.0
30/01:30pm 32.2 25.3 2.3 15 15.2 W 28 41 15 22 1013.6 1013.3 0.0
30/01:00pm 31.4 24.4 1.7 15 14.9 WNW 28 35 15 19 1013.7 1013.4 0.0
30/12:30pm 31.0 25.6 2.3 16 14.5 W 20 28 11 15 1014.3 1014.1 0.0
30/12:00pm 31.2 24.7 0.6 14 15.0 W 24 44 13 24 1014.8 1014.5 0.0
30/11:30am 30.5 26.5 5.0 20 13.4 W 15 24 8 13 1015.1 1014.8 0.0
30/11:00am 28.9 25.6 4.4 21 12.7 N 11 15 6 8 1014.8 1014.5 0.0
30/10:30am 28.1 24.1 5.0 23 12.0 W 15 22 8 12 1015.9 1015.6 0.0
30/10:00am 27.9 23.5 4.9 23 11.9 W 17 22 9 12 1016.0 1015.7 0.0
30/09:30am 27.3 24.0 4.4 23 11.7 WNW 11 15 6 8 1016.0 1015.7 0.0
30/09:00am 25.5 22.0 3.5 24 10.9 NW 11 15 6 8 1016.0 1015.7 0.0
30/08:30am 23.9 20.5 3.8 27 10.0 N 11 15 6 8 1016.0 1015.7 0.0
30/08:00am 20.4 17.5 4.8 36 7.7 NNE 9 13 5 7 1015.6 1015.3 0.0
30/07:30am 18.0 16.2 5.2 43 6.2 SW 4 7 2 4 1015.3 1015.0 0.0
30/07:00am 17.8 15.5 4.7 42 6.3 SSE 6 13 3 7 1015.3 1015.0 0.0
30/06:30am 16.4 13.9 4.8 46 5.6 NNE 7 11 4 6 1015.2 1014.9 0.0
30/06:00am 16.3 13.7 4.0 44 5.8 SSW 7 9 4 5 1015.2 1014.9 0.0
30/05:30am 15.1 13.8 4.2 48 5.1 CALM 0 0 0 0 1014.4 1014.2 0.0
30/05:00am 17.8 14.1 2.5 36 7.1 NNE 11 15 6 8 1013.8 1013.5 0.0
30/04:30am 17.1 15.0 3.8 41 6.3 E 4 9 2 5 1013.6 1013.3 0.0
30/04:00am 17.7 14.1 3.2 38 6.8 NE 11 15 6 8 1013.3 1013.0 0.0
30/03:30am 15.3 12.5 5.2 51 4.8 NE 9 11 5 6 1013.9 1013.6 0.0
30/03:00am 15.8 13.1 5.7 51 4.9 ENE 9 11 5 6 1013.8 1013.5 0.0
30/02:30am 14.4 13.4 5.7 56 4.2 CALM 0 7 0 4 1014.0 1013.7 0.0
30/02:00am 15.3 14.1 4.7 49 5.0 CALM 0 0 0 0 1014.1 1013.8 0.0
30/01:30am 15.7 14.5 4.4 47 5.3 CALM 0 0 0 0 1014.3 1014.1 0.0
30/01:00am 18.9 16.0 2.7 34 7.6 NE 7 9 4 5 1014.5 1014.3 0.0
30/12:30am 20.1 16.9 2.9 32 8.1 ENE 9 11 5 6 1014.8 1014.5 0.0
30/12:00am 19.4 15.8 3.2 34 7.7 NE 11 13 6 7 1014.9 1014.6 0.0
 
Date/Time
EST
Temp
°C
App
Temp
°C
Dew
Point
Rel
Hum
%
Delta-T
°C
Wind Press
QNH
hPa
Press
MSL
hPa
Rain
since 9 am
mm
Dir
 
Spd
km/h
Gust
km/h
Spd
kts
Gust
kts
29/11:30pm 19.5 16.4 3.6 35 7.6 ENE 9 11 5 6 1014.9 1014.6 0.0
29/11:00pm 19.4 16.1 4.3 37 7.3 ENE 11 13 6 7 1015.1 1014.8 0.0
29/10:30pm 19.3 15.8 5.4 40 6.9 ENE 13 15 7 8 1015.3 1015.0 0.0
29/10:00pm 18.8 16.1 5.6 42 6.5 NE 9 11 5 6 1015.3 1015.0 0.0
29/09:30pm 19.9 17.2 5.5 39 7.2 ENE 9 9 5 5 1015.3 1015.0 0.0
29/09:00pm 20.7 19.5 6.3 39 7.3 E 2 7 1 4 1015.5 1015.2 0.0
29/08:30pm 21.5 18.7 5.0 34 8.2 NE 9 11 5 6 1015.3 1015.0 0.0
29/08:00pm 21.3 18.9 5.2 35 8.0 NE 7 7 4 4 1015.2 1014.9 0.0
29/07:30pm 21.8 20.5 3.9 31 8.8 CALM 0 0 0 0 1015.2 1014.9 0.0
29/07:00pm 23.8 21.8 4.2 28 9.8 WNW 4 7 2 4 1014.8 1014.5 0.0
29/06:30pm 26.0 24.1 2.7 22 11.5 WNW 2 6 1 3 1014.3 1014.1 0.0
29/06:00pm 28.3 24.6 0.1 16 13.5 NNW 9 13 5 7 1014.0 1013.7 0.0
29/05:30pm 29.6 23.9 -0.7 14 14.4 NW 19 26 10 14 1013.9 1013.6 0.0
29/05:00pm 30.4 25.6 -0.1 14 14.7 NW 15 24 8 13 1013.5 1013.2 0.0
29/04:30pm 30.9 25.2 -0.7 13 15.2 NNW 19 24 10 13 1013.3 1013.0 0.0
29/04:00pm 31.1 25.4 -0.5 13 15.2 NNW 19 26 10 14 1013.2 1012.9 0.0
29/03:30pm 31.2 26.7 -0.5 13 15.3 WNW 13 19 7 10 1013.4 1013.1 0.0
29/03:00pm 31.1 25.2 -0.5 13 15.2 NNW 20 32 11 17 1013.6 1013.3 0.0
29/02:30pm 30.7 25.0 -0.8 13 15.1 WNW 19 28 10 15 1014.0 1013.7 0.0
29/02:00pm 30.5 26.0 0.0 14 14.8 NNW 13 24 7 13 1014.2 1013.9 0.0
29/01:30pm 30.3 25.7 1.7 16 14.2 NW 15 22 8 12 1014.8 1014.5 0.0
29/01:00pm 29.6 25.6 2.8 18 13.5 NW 13 22 7 12 1015.1 1014.8 0.0
29/12:30pm 28.6 23.0 1.2 17 13.4 NW 20 30 11 16 1015.7 1015.4 0.0
29/12:00pm 28.2 22.7 0.9 17 13.2 NW 19 24 10 13 1015.8 1015.5 0.0
29/11:30am 27.8 23.5 3.5 21 12.3 NNW 15 22 8 12 1016.0 1015.7 0.0
29/11:00am 26.6 22.9 2.5 21 11.9 NNW 11 20 6 11 1016.4 1016.1 0.0
29/10:30am 25.3 22.1 3.3 24 10.9 NNW 9 17 5 9 1016.5 1016.2 0.0
29/10:00am 23.5 20.3 2.9 26 10.0 NW 9 17 5 9 1016.9 1016.6 0.0
29/09:30am 22.8 17.9 2.3 26 9.8 NW 17 24 9 13 1017.1 1016.8 0.0
29/09:00am 22.5 18.5 3.1 28 9.4 WNW 13 20 7 11 1017.2 1016.9 0.0
29/08:30am 21.8 17.1 3.0 29 9.0 W 17 22 9 12 1017.3 1017.0 0.0

Other Formats:

Comma delimited format used in spreadsheet applications
http://www.bom.gov.au/fwo/IDN60801/IDN60801.94710.axf

JavaScript Object Notation format (JSON) in row-major order
http://www.bom.gov.au/fwo/IDN60801/IDN60801.94710.json